Owatonna, Owatonna Degner Regional Airport (KOWA)

NameOwatonna Degner Regional Airport
CityOwatonna
CountryUnited States
ICAOKOWA
IATA
Altitude349 m
CoordinatesGoogle Map
Live Air TrafficLiveATC.net
METARKOWA 180053Z AUTO 30005KT 10SM SCT090 M11/M13 A3011 RMK AO2
2019-01-18 00:53:00 Wind: West-Northwest (300°) 2.57 m/s - Visibility: 16093.4 m - Temperature: -11 °C - Dew point: -13 °C - Humidity: 85.4% - Pressure: 1019.64 hPa
Statistics

The table below shows the detailed information of all flights to/from Owatonna, Owatonna Degner Regional Airport (KOWA).